Time;durP1;ratioP1;P1;durP2;ratioP2;P2;SDS_P1;SDS_P2;PMS_P1;PMS_P2;Temp;Humidity;BMP_temperature;BMP_pressure;BME280_temperature;BME280_humidity;BME280_pressure;Samples;Min_cycle;Max_cycle;Signal;HPM_P1;HPM_P2
2021/01/31 00:00:24;;;;;;;35.55;2.55;;;13.30;95.20;;;;;;4994582;28;20042;-67
2021/01/31 00:02:50;;;;;;;13.02;2.65;;;13.20;95.20;;;;;;4994747;28;20073;-68
2021/01/31 00:05:17;;;;;;;10.23;3.08;;;12.90;95.00;;;;;;4994341;28;20490;-68
2021/01/31 00:07:43;;;;;;;10.00;3.47;;;13.20;95.20;;;;;;4993957;28;20042;-67
2021/01/31 00:10:11;;;;;;;11.40;3.83;;;13.30;95.30;;;;;;4993804;28;20058;-68
2021/01/31 00:12:37;;;;;;;11.57;3.30;;;13.00;95.20;;;;;;4993804;28;20497;-68
2021/01/31 00:15:07;;;;;;;8.02;2.97;;;13.20;95.30;;;;;;4995592;28;20134;-67
2021/01/31 00:17:34;;;;;;;7.95;2.55;;;12.90;94.90;;;;;;4997363;28;20096;-68
2021/01/31 00:20:00;;;;;;;7.82;2.45;;;13.00;95.30;;;;;;4997474;28;20068;-68
2021/01/31 00:22:26;;;;;;;8.15;2.95;;;13.10;95.50;;;;;;4997010;28;20049;-67
2021/01/31 00:24:54;;;;;;;7.72;3.13;;;12.90;95.50;;;;;;4997171;28;20064;-68
2021/01/31 00:27:24;;;;;;;6.28;2.60;;;13.00;95.30;;;;;;4997137;28;20039;-68
2021/01/31 00:29:51;;;;;;;9.27;3.13;;;13.00;95.70;;;;;;4997438;28;20064;-68
2021/01/31 00:32:28;;;;;;;9.82;3.42;;;13.00;95.70;;;;;;4997240;28;20034;-68
2021/01/31 00:34:56;;;;;;;7.80;3.60;;;12.90;95.90;;;;;;4997378;28;20379;-67
2021/01/31 00:37:23;;;;;;;10.30;3.80;;;13.10;95.80;;;;;;4997264;28;20540;-67
2021/01/31 00:39:50;;;;;;;7.55;3.47;;;13.00;95.80;;;;;;4997375;28;20053;-68
2021/01/31 00:42:18;;;;;;;9.52;3.75;;;12.80;95.70;;;;;;4997212;28;20038;-68
2021/01/31 00:44:47;;;;;;;8.40;3.00;;;13.00;95.70;;;;;;4996869;28;20050;-68
2021/01/31 00:47:14;;;;;;;3.72;2.50;;;13.20;95.80;;;;;;4997184;28;20034;-68
2021/01/31 00:49:42;;;;;;;8.23;3.03;;;13.00;96.00;;;;;;4996625;28;20181;-67
2021/01/31 00:52:07;;;;;;;5.72;2.63;;;12.90;95.90;;;;;;4996487;28;20046;-67
2021/01/31 00:54:33;;;;;;;5.13;2.40;;;13.10;96.00;;;;;;4996694;28;20421;-69
2021/01/31 00:56:59;;;;;;;5.07;2.40;;;12.70;95.90;;;;;;4997444;28;20038;-67
2021/01/31 00:59:25;;;;;;;6.15;2.50;;;12.90;96.10;;;;;;4996734;28;20042;-67
2021/01/31 01:01:51;;;;;;;4.10;2.20;;;12.90;96.20;;;;;;4996683;28;20544;-67
2021/01/31 01:04:17;;;;;;;5.13;2.38;;;12.90;96.10;;;;;;4996422;28;20046;-67
2021/01/31 01:06:44;;;;;;;6.03;2.42;;;12.80;96.20;;;;;;4996632;28;20125;-68
2021/01/31 01:09:10;;;;;;;5.55;1.90;;;12.70;96.30;;;;;;4996580;28;20054;-67
2021/01/31 01:11:36;;;;;;;3.08;1.58;;;12.80;96.20;;;;;;4996449;28;20117;-68
2021/01/31 01:14:02;;;;;;;4.70;2.05;;;12.90;96.30;;;;;;4996835;28;20125;-68
2021/01/31 01:16:28;;;;;;;6.63;1.63;;;12.90;96.40;;;;;;4996390;28;20117;-68
2021/01/31 01:18:54;;;;;;;3.80;1.60;;;12.90;96.50;;;;;;4996771;28;20513;-68
2021/01/31 01:21:20;;;;;;;4.45;1.40;;;12.80;96.50;;;;;;4996716;28;20088;-67
2021/01/31 01:23:46;;;;;;;3.65;1.70;;;13.10;96.50;;;;;;4996434;28;20049;-68
2021/01/31 01:26:11;;;;;;;4.30;1.50;;;12.90;96.40;;;;;;4996125;28;20043;-67
2021/01/31 01:28:37;;;;;;;4.07;1.35;;;12.80;96.40;;;;;;4996436;28;20045;-68
2021/01/31 01:31:03;;;;;;;4.63;1.70;;;12.80;96.40;;;;;;4996853;28;20109;-68
2021/01/31 01:33:29;;;;;;;3.38;1.83;;;12.80;96.40;;;;;;4996377;28;20100;-68
2021/01/31 01:35:54;;;;;;;3.72;1.83;;;12.70;96.40;;;;;;4996268;28;20053;-67
2021/01/31 01:38:20;;;;;;;4.50;1.90;;;12.80;96.50;;;;;;4996522;28;20132;-68
2021/01/31 01:40:46;;;;;;;4.72;2.30;;;12.90;96.60;;;;;;4995982;28;20501;-68
2021/01/31 01:43:18;;;;;;;4.32;2.35;;;12.80;96.50;;;;;;4996360;28;20077;-68
2021/01/31 01:45:45;;;;;;;5.38;2.50;;;12.70;96.10;;;;;;4995639;28;20042;-68
2021/01/31 01:48:17;;;;;;;3.63;2.45;;;12.60;96.60;;;;;;4996032;28;20038;-68
2021/01/31 01:50:48;;;;;;;7.20;2.70;;;12.70;96.60;;;;;;4996049;28;20041;-67
2021/01/31 01:53:16;;;;;;;4.55;2.75;;;12.60;96.60;;;;;;4996448;28;20042;-67
2021/01/31 01:55:59;;;;;;;5.40;2.75;;;12.80;96.60;;;;;;4996031;28;20088;-67
2021/01/31 01:58:27;;;;;;;5.75;2.90;;;12.90;96.40;;;;;;4995713;28;20038;-67
2021/01/31 02:00:53;;;;;;;6.03;3.38;;;12.50;96.70;;;;;;4995916;28;20045;-67
2021/01/31 02:03:26;;;;;;;7.07;3.50;;;12.50;96.70;;;;;;4995608;28;20050;-67
2021/01/31 02:06:04;;;;;;;3.38;3.05;;;12.60;96.30;;;;;;4995232;28;20068;-67
2021/01/31 02:08:29;;;;;;;5.75;3.25;;;12.30;96.80;;;;;;4995624;28;20108;-67
2021/01/31 02:10:55;;;;;;;3.28;2.40;;;12.40;96.80;;;;;;4995445;28;20494;-67
2021/01/31 02:13:21;;;;;;;4.00;2.58;;;12.30;96.80;;;;;;4995415;28;20042;-67
2021/01/31 02:15:48;;;;;;;6.53;2.67;;;12.60;96.90;;;;;;4995218;28;20050;-67
2021/01/31 02:18:35;;;;;;;4.07;2.97;;;12.30;96.90;;;;;;4995507;28;20065;-67
2021/01/31 02:21:37;;;;;;;5.03;2.50;;;12.20;96.40;;;;;;4995302;28;20042;-68
2021/01/31 02:24:09;;;;;;;4.15;3.17;;;12.30;96.40;;;;;;4995375;28;20043;-67
2021/01/31 02:26:55;;;;;;;4.80;2.97;;;12.30;96.00;;;;;;4996030;28;20040;-68
2021/01/31 02:29:52;;;;;;;5.45;3.05;;;12.30;96.10;;;;;;4995158;28;20065;-67
2021/01/31 02:32:45;;;;;;;6.00;3.10;;;12.20;96.50;;;;;;4995133;28;20046;-67
2021/01/31 02:35:26;;;;;;;4.43;2.67;;;12.40;96.50;;;;;;4995243;28;20034;-67
2021/01/31 02:38:10;;;;;;;5.75;2.83;;;12.50;96.80;;;;;;5010411;28;20488;-67
2021/01/31 02:40:51;;;;;;;3.72;2.15;;;12.40;96.30;;;;;;5013613;28;20121;-67
2021/01/31 02:43:28;;;;;;;4.88;2.42;;;12.40;96.70;;;;;;5014488;28;20127;-67
2021/01/31 02:45:59;;;;;;;3.95;2.20;;;12.60;96.70;;;;;;5014547;28;20030;-68
2021/01/31 02:48:39;;;;;;;2.60;1.85;;;12.60;96.70;;;;;;5014017;28;20566;-67
2021/01/31 02:51:17;;;;;;;2.88;1.85;;;12.50;96.40;;;;;;5014407;28;20050;-68
2021/01/31 02:53:58;;;;;;;2.40;1.10;;;12.60;96.50;;;;;;5014752;28;20045;-68
2021/01/31 02:56:35;;;;;;;2.05;1.50;;;12.60;96.90;;;;;;5014264;28;20076;-67
2021/01/31 02:59:08;;;;;;;3.90;1.40;;;12.60;96.90;;;;;;5014556;28;20106;-67
2021/01/31 03:01:37;;;;;;;4.88;1.30;;;12.40;96.90;;;;;;5013914;28;20029;-68
2021/01/31 03:04:21;;;;;;;3.58;1.02;;;12.50;96.80;;;;;;5014122;28;20481;-68
2021/01/31 03:06:58;;;;;;;2.30;1.00;;;12.60;96.40;;;;;;5014399;28;20045;-67
2021/01/31 03:09:44;;;;;;;1.05;0.95;;;12.40;96.70;;;;;;5014388;28;20046;-67
2021/01/31 03:12:13;;;;;;;1.80;0.90;;;12.60;96.20;;;;;;5014293;28;20042;-68
2021/01/31 03:14:44;;;;;;;1.23;0.75;;;12.70;96.60;;;;;;5014313;28;20068;-68
2021/01/31 03:17:35;;;;;;;1.65;0.70;;;12.60;96.50;;;;;;5013948;28;20116;-68
2021/01/31 03:20:18;;;;;;;3.92;0.50;;;12.70;96.80;;;;;;5014207;28;20045;-67
2021/01/31 03:22:59;;;;;;;2.20;0.60;;;12.90;96.30;;;;;;5013818;28;20038;-67
2021/01/31 03:25:40;;;;;;;0.85;0.30;;;12.70;96.20;;;;;;5014181;28;20045;-67
2021/01/31 03:28:06;;;;;;;2.35;0.22;;;12.80;96.60;;;;;;5013976;28;20044;-67
2021/01/31 03:30:32;;;;;;;1.83;0.32;;;12.90;96.50;;;;;;5013897;28;20041;-67
2021/01/31 03:33:13;;;;;;;1.27;0.50;;;12.70;96.30;;;;;;5013822;28;20045;-67
2021/01/31 03:35:43;;;;;;;1.23;0.60;;;12.90;96.10;;;;;;5013410;28;20053;-67
2021/01/31 03:38:13;;;;;;;2.80;0.63;;;12.90;96.40;;;;;;5013891;28;20041;-67
2021/01/31 03:40:43;;;;;;;1.63;0.60;;;13.00;96.30;;;;;;5014025;28;20041;-67
2021/01/31 03:43:09;;;;;;;1.17;0.55;;;12.60;96.30;;;;;;5013575;28;20401;-67
2021/01/31 03:45:59;;;;;;;2.47;0.50;;;12.90;96.30;;;;;;5013790;28;20038;-67
2021/01/31 03:48:28;;;;;;;3.10;0.40;;;12.60;96.00;;;;;;5014117;28;20052;-67
2021/01/31 03:50:54;;;;;;;1.60;0.35;;;12.50;96.40;;;;;;5016293;28;20095;-67
2021/01/31 03:53:20;;;;;;;1.85;0.30;;;12.70;96.30;;;;;;5017535;28;20041;-67
2021/01/31 03:55:47;;;;;;;1.23;0.38;;;12.40;96.30;;;;;;5017584;28;20045;-67
2021/01/31 03:58:17;;;;;;;1.40;0.40;;;12.50;96.50;;;;;;5017604;28;20038;-67
2021/01/31 04:00:51;;;;;;;0.73;0.30;;;12.50;96.50;;;;;;5017545;28;20038;-67
2021/01/31 04:03:29;;;;;;;0.70;0.20;;;12.70;96.60;;;;;;5017757;28;20524;-67
2021/01/31 04:06:08;;;;;;;0.45;0.10;;;12.60;96.10;;;;;;5017667;28;20049;-67
2021/01/31 04:08:36;;;;;;;2.38;0.30;;;12.60;96.10;;;;;;5017697;28;20044;-67
2021/01/31 04:11:03;;;;;;;0.57;0.20;;;12.60;96.60;;;;;;5017573;28;20053;-67
2021/01/31 04:13:31;;;;;;;1.00;0.17;;;12.60;96.50;;;;;;5017367;28;20049;-67
2021/01/31 04:16:00;;;;;;;0.98;0.10;;;12.70;96.50;;;;;;5017206;28;20042;-67
2021/01/31 04:18:26;;;;;;;0.68;0.30;;;12.50;96.50;;;;;;5017601;28;20038;-67
2021/01/31 04:20:53;;;;;;;1.67;0.30;;;12.50;96.40;;;;;;5017566;28;20445;-67
2021/01/31 04:23:19;;;;;;;1.55;0.70;;;12.60;96.40;;;;;;5017375;28;20100;-67
2021/01/31 04:25:46;;;;;;;3.08;0.73;;;12.60;96.40;;;;;;5017177;28;20041;-67
2021/01/31 04:28:16;;;;;;;1.92;1.00;;;12.70;96.40;;;;;;5017014;28;20038;-67
2021/01/31 04:30:43;;;;;;;4.00;1.00;;;12.80;96.50;;;;;;5016721;28;20037;-67
2021/01/31 04:33:11;;;;;;;1.20;1.10;;;12.50;96.50;;;;;;5016962;28;20044;-67
2021/01/31 04:35:37;;;;;;;2.45;1.55;;;12.70;96.40;;;;;;5017112;28;20042;-67
2021/01/31 04:38:05;;;;;;;2.42;1.30;;;12.50;96.10;;;;;;5016840;28;20121;-67
2021/01/31 04:40:31;;;;;;;2.20;1.17;;;12.50;96.40;;;;;;5017401;28;20099;-67
2021/01/31 04:42:57;;;;;;;2.20;1.13;;;12.50;96.30;;;;;;5016995;28;20072;-67
2021/01/31 04:45:24;;;;;;;2.13;1.25;;;12.60;96.20;;;;;;5016663;28;20363;-67
2021/01/31 04:47:57;;;;;;;2.05;1.20;;;12.60;96.30;;;;;;5016943;28;20060;-67
2021/01/31 04:50:37;;;;;;;1.92;1.17;;;12.70;96.20;;;;;;5016931;28;20046;-67
2021/01/31 04:53:20;;;;;;;2.15;1.35;;;12.70;96.20;;;;;;5016648;28;20073;-67
2021/01/31 04:55:55;;;;;;;2.15;1.45;;;12.60;95.70;;;;;;5016204;28;20069;-67
2021/01/31 04:58:30;;;;;;;2.38;1.38;;;12.40;95.60;;;;;;5016397;28;20038;-67
2021/01/31 05:01:05;;;;;;;2.38;1.50;;;12.70;96.10;;;;;;5015494;28;20153;-67
2021/01/31 05:03:33;;;;;;;;;;;12.50;95.60;;;;;;5016551;28;20046;-67
2021/01/31 05:06:11;;;;;;;2.90;1.80;;;12.70;96.20;;;;;;5016397;28;19921;-67
2021/01/31 05:08:37;;;;;;;2.80;1.83;;;12.80;96.10;;;;;;5016784;28;20053;-67
2021/01/31 05:11:28;;;;;;;2.03;1.42;;;12.70;96.00;;;;;;5016624;28;20556;-67
2021/01/31 05:14:00;;;;;;;3.95;1.98;;;12.70;95.70;;;;;;5016311;28;20521;-67
2021/01/31 05:16:26;;;;;;;3.85;1.80;;;12.80;95.60;;;;;;5016825;28;20046;-67
2021/01/31 05:18:57;;;;;;;2.83;1.80;;;12.60;95.90;;;;;;5016112;28;20042;-67
2021/01/31 05:21:29;;;;;;;3.85;1.92;;;12.50;96.10;;;;;;5016039;28;20120;-67
2021/01/31 05:24:04;;;;;;;4.18;2.10;;;12.50;96.10;;;;;;5016208;28;20042;-67
2021/01/31 05:26:36;;;;;;;;;;;12.80;95.70;;;;;;5016574;28;20048;-67
2021/01/31 05:29:05;;;;;;;2.50;2.00;;;12.70;95.70;;;;;;5016236;28;19910;-67
2021/01/31 05:31:35;;;;;;;3.97;2.13;;;12.70;96.00;;;;;;5015727;28;20409;-67
2021/01/31 05:34:01;;;;;;;3.92;2.20;;;12.70;95.90;;;;;;5015797;28;20045;-67
2021/01/31 05:36:31;;;;;;;4.10;2.50;;;12.50;95.80;;;;;;5015876;28;20042;-67
2021/01/31 05:38:58;;;;;;;4.50;2.40;;;12.60;95.90;;;;;;5016056;28;20118;-67
2021/01/31 05:41:56;;;;;;;3.03;2.08;;;12.90;95.90;;;;;;5015814;28;20065;-67
2021/01/31 05:44:26;;;;;;;3.80;2.25;;;12.70;96.00;;;;;;4993127;28;20041;-67
2021/01/31 05:46:58;;;;;;;4.32;2.08;;;12.60;95.90;;;;;;5015870;28;20038;-67
2021/01/31 05:49:43;;;;;;;5.35;2.40;;;12.50;95.90;;;;;;5016118;28;20045;-67
2021/01/31 05:52:29;;;;;;;3.70;2.63;;;12.90;95.60;;;;;;5015621;28;20409;-67
2021/01/31 05:54:56;;;;;;;5.43;2.75;;;12.80;96.00;;;;;;5015921;28;20042;-67
2021/01/31 05:57:36;;;;;;;5.50;2.63;;;12.40;95.80;;;;;;5015540;28;20033;-67
2021/01/31 06:00:29;;;;;;;6.32;2.85;;;12.50;96.00;;;;;;5015523;28;20025;-67
2021/01/31 06:03:21;;;;;;;4.45;2.70;;;12.60;95.50;;;;;;5010356;28;20099;-67
2021/01/31 06:05:47;;;;;;;5.05;2.78;;;12.40;95.80;;;;;;5012678;28;20053;-67
2021/01/31 06:08:29;;;;;;;4.93;3.03;;;12.80;95.90;;;;;;5015383;28;20034;-67
2021/01/31 06:11:06;;;;;;;4.50;2.90;;;12.60;95.90;;;;;;5015398;28;20061;-67
2021/01/31 06:13:34;;;;;;;5.97;3.10;;;12.60;95.40;;;;;;5014692;28;20056;-67
2021/01/31 06:16:04;;;;;;;3.88;2.97;;;12.70;95.80;;;;;;5015208;28;20045;-67
2021/01/31 06:18:41;;;;;;;4.63;2.67;;;12.30;95.70;;;;;;5014704;28;20092;-67
2021/01/31 06:21:42;;;;;;;6.20;3.33;;;12.70;95.40;;;;;;5015102;28;20045;-67
2021/01/31 06:24:22;;;;;;;5.97;3.20;;;12.80;95.40;;;;;;5015232;28;20038;-67
2021/01/31 06:26:49;;;;;;;7.30;3.38;;;12.50;95.30;;;;;;5014558;28;20069;-67
2021/01/31 06:29:44;;;;;;;5.65;3.10;;;12.70;95.70;;;;;;5014966;28;20563;-67
2021/01/31 06:32:25;;;;;;;4.57;3.40;;;12.60;95.30;;;;;;5027892;28;20125;-67
2021/01/31 06:35:10;;;;;;;6.20;3.60;;;12.40;95.80;;;;;;5008575;28;20038;-67
2021/01/31 06:37:49;;;;;;;5.28;3.58;;;12.50;95.30;;;;;;5010775;28;20038;-67
2021/01/31 06:40:38;;;;;;;5.00;3.78;;;12.30;95.20;;;;;;5014795;28;20037;-67
2021/01/31 06:43:52;;;;;;;4.55;3.88;;;12.40;95.40;;;;;;5014374;28;20037;-67
2021/01/31 06:46:37;;;;;;;5.32;3.90;;;12.70;95.60;;;;;;4972823;28;20070;-67
2021/01/31 06:49:17;;;;;;;6.50;4.10;;;12.90;95.30;;;;;;5014490;28;20157;-67
2021/01/31 06:51:52;;;;;;;5.13;3.67;;;12.60;95.60;;;;;;5014050;28;20556;-67
2021/01/31 06:54:26;;;;;;;;;;;12.40;95.10;;;;;;5015011;28;20072;-67
2021/01/31 06:57:04;;;;;;;5.57;3.90;;;12.60;95.80;;;;;;5014618;28;19910;-67
2021/01/31 07:00:02;;;;;;;6.05;4.40;;;12.70;95.20;;;;;;5014484;28;20034;-67
2021/01/31 07:02:49;;;;;;;5.80;4.30;;;12.30;95.10;;;;;;5014278;28;20433;-67
2021/01/31 07:05:25;;;;;;;6.22;4.28;;;12.60;95.40;;;;;;5013947;28;20087;-67
2021/01/31 07:07:54;;;;;;;5.90;4.10;;;12.50;95.10;;;;;;5013888;28;20068;-67
2021/01/31 07:10:37;;;;;;;5.30;4.28;;;12.20;95.50;;;;;;5012565;28;20094;-67
2021/01/31 07:13:54;;;;;;;6.22;4.35;;;12.50;95.80;;;;;;5003020;28;20042;-67
2021/01/31 07:16:20;;;;;;;5.97;4.15;;;12.50;95.50;;;;;;4978644;28;20050;-68
2021/01/31 07:18:58;;;;;;;5.38;4.15;;;12.50;95.60;;;;;;5013361;28;20512;-68
2021/01/31 07:21:41;;;;;;;7.45;4.60;;;12.40;95.70;;;;;;5013298;28;20053;-68
2021/01/31 07:24:15;;;;;;;9.15;4.43;;;12.40;95.20;;;;;;5012919;28;20041;-67
2021/01/31 07:26:51;;;;;;;7.88;4.57;;;12.40;95.40;;;;;;5017985;28;20040;-67
2021/01/31 07:29:36;;;;;;;5.85;4.38;;;12.10;94.90;;;;;;5018196;28;20033;-67
2021/01/31 07:32:04;;;;;;;;;;;12.60;95.20;;;;;;5018023;28;20044;-67
2021/01/31 07:34:42;;;;;;;7.40;5.00;;;12.50;95.50;;;;;;5016407;28;20264;-68
2021/01/31 07:37:09;;;;;;;6.25;4.47;;;12.60;95.50;;;;;;5017954;28;20038;-67
2021/01/31 07:39:50;;;;;;;7.40;5.25;;;12.60;95.40;;;;;;5017403;28;20034;-67
2021/01/31 07:42:17;;;;;;;8.55;5.78;;;12.70;95.50;;;;;;5017856;28;20042;-67
2021/01/31 07:44:45;;;;;;;10.52;5.63;;;12.40;95.40;;;;;;5017534;28;20034;-66
2021/01/31 07:47:12;;;;;;;6.68;5.15;;;12.00;95.00;;;;;;5017335;28;20425;-67
2021/01/31 07:50:07;;;;;;;8.63;6.55;;;12.50;95.20;;;;;;5017202;28;20034;-66
2021/01/31 07:52:56;;;;;;;10.85;7.35;;;12.30;95.40;;;;;;5003610;28;20061;-66
2021/01/31 07:55:32;;;;;;;10.80;6.85;;;12.30;94.90;;;;;;5016997;28;20485;-66
2021/01/31 07:58:11;;;;;;;11.27;6.68;;;12.10;94.70;;;;;;5017252;28;20073;-67
2021/01/31 08:00:43;;;;;;;9.35;6.15;;;12.10;95.20;;;;;;5017539;28;20115;-67
2021/01/31 08:03:25;;;;;;;11.73;7.43;;;12.20;95.30;;;;;;5017591;28;20054;-68
2021/01/31 08:05:51;;;;;;;10.93;7.03;;;12.40;95.30;;;;;;5016934;28;20057;-68
2021/01/31 08:08:46;;;;;;;11.63;7.28;;;12.30;94.90;;;;;;5017598;28;20065;-68
2021/01/31 08:11:18;;;;;;;10.95;7.15;;;12.40;94.80;;;;;;5017713;28;20087;-68
2021/01/31 08:13:46;;;;;;;11.68;6.78;;;12.30;95.20;;;;;;5017366;28;20042;-69
2021/01/31 08:16:49;;;;;;;11.32;7.72;;;12.60;95.20;;;;;;5017333;28;20092;-68
2021/01/31 08:19:17;;;;;;;10.57;7.65;;;12.50;94.70;;;;;;5017715;28;20037;-68
2021/01/31 08:22:00;;;;;;;11.10;7.82;;;12.40;94.50;;;;;;5017543;28;20041;-70
2021/01/31 08:24:57;;;;;;;11.02;6.97;;;12.50;94.70;;;;;;5016701;28;20036;-70
2021/01/31 08:27:38;;;;;;;11.05;7.20;;;12.60;94.80;;;;;;5017397;28;20061;-70
2021/01/31 08:30:28;;;;;;;11.70;7.60;;;12.60;94.90;;;;;;5017046;28;20497;-74
2021/01/31 08:32:57;;;;;;;10.68;6.90;;;12.20;94.40;;;;;;5016905;28;20112;-73
2021/01/31 08:35:53;;;;;;;11.00;7.63;;;12.00;94.70;;;;;;5016844;28;20042;-73
2021/01/31 08:38:27;;;;;;;9.95;7.47;;;12.20;94.40;;;;;;5017271;28;20053;-73
2021/01/31 08:41:04;;;;;;;13.20;7.63;;;12.30;94.60;;;;;;5016877;28;20034;-74
2021/01/31 08:43:39;;;;;;;10.07;6.88;;;12.50;94.60;;;;;;5016742;28;20069;-74
2021/01/31 08:46:18;;;;;;;12.45;7.68;;;12.60;94.60;;;;;;5016557;28;20117;-74
2021/01/31 08:48:56;;;;;;;10.57;6.80;;;12.50;94.80;;;;;;5016981;28;20046;-74
2021/01/31 08:51:36;;;;;;;11.48;7.43;;;12.50;94.80;;;;;;5016582;28;20041;-74
2021/01/31 08:54:06;;;;;;;11.40;6.90;;;12.80;94.50;;;;;;5016629;28;20045;-74
2021/01/31 08:56:40;;;;;;;8.95;6.55;;;12.80;94.80;;;;;;5016448;28;20049;-74
2021/01/31 08:59:21;;;;;;;9.95;6.47;;;12.90;94.40;;;;;;5016522;28;20137;-74
2021/01/31 09:01:52;;;;;;;8.32;6.00;;;13.00;94.70;;;;;;5016480;28;20401;-74
2021/01/31 09:04:20;;;;;;;9.60;6.20;;;12.60;94.50;;;;;;5015246;28;20069;-74
2021/01/31 09:06:48;;;;;;;8.95;6.20;;;13.00;94.50;;;;;;5000274;28;20046;-74
2021/01/31 09:09:19;;;;;;;9.80;6.60;;;12.80;94.40;;;;;;5006619;28;20398;-74
2021/01/31 09:11:49;;;;;;;12.68;8.52;;;12.90;93.90;;;;;;5002558;28;20042;-74
2021/01/31 09:14:22;;;;;;;14.90;9.40;;;12.90;94.20;;;;;;5015537;28;20052;-74
2021/01/31 09:16:48;;;;;;;9.52;6.90;;;13.00;94.20;;;;;;5015620;28;20596;-74
2021/01/31 09:19:24;;;;;;;9.35;7.13;;;12.80;93.90;;;;;;5015704;28;20095;-74
2021/01/31 09:21:56;;;;;;;7.95;6.30;;;12.80;94.30;;;;;;5014964;28;20108;-75
2021/01/31 09:24:24;;;;;;;7.75;6.35;;;12.90;94.20;;;;;;5015042;28;20038;-75
2021/01/31 09:26:56;;;;;;;8.43;6.72;;;13.20;94.30;;;;;;5015072;28;20129;-75
2021/01/31 09:29:25;;;;;;;7.40;6.13;;;13.20;94.20;;;;;;5015114;28;20505;-74
2021/01/31 09:32:00;;;;;;;8.40;6.18;;;13.30;94.30;;;;;;5015361;28;20073;-74
2021/01/31 09:34:26;;;;;;;9.82;6.75;;;13.30;94.00;;;;;;5014829;28;20331;-74
2021/01/31 09:37:25;;;;;;;9.02;6.18;;;13.30;94.00;;;;;;5014826;28;20042;-74
2021/01/31 09:39:53;;;;;;;9.57;6.75;;;13.40;93.50;;;;;;5015018;28;20128;-74
2021/01/31 09:42:20;;;;;;;8.82;6.45;;;13.30;93.70;;;;;;5014729;28;20644;-74
2021/01/31 09:44:56;;;;;;;9.90;6.05;;;13.40;93.80;;;;;;5014651;28;20429;-74
2021/01/31 09:47:23;;;;;;;7.25;5.63;;;13.50;94.00;;;;;;5014586;28;20049;-74
2021/01/31 09:49:52;;;;;;;7.95;6.20;;;13.70;93.80;;;;;;5014745;28;20444;-77
2021/01/31 09:52:19;;;;;;;8.43;6.30;;;14.00;93.90;;;;;;5014882;28;20077;-74
2021/01/31 09:54:44;;;;;;;7.53;5.90;;;13.70;93.30;;;;;;5015007;28;20046;-75
2021/01/31 09:57:28;;;;;;;7.10;5.85;;;14.40;93.80;;;;;;5011544;28;20127;-75
2021/01/31 10:00:07;;;;;;;7.45;6.13;;;14.50;93.70;;;;;;5014283;28;20050;-75
2021/01/31 10:02:34;;;;;;;7.03;6.05;;;14.10;92.80;;;;;;5009780;28;20125;-77
2021/01/31 10:05:02;;;;;;;8.18;6.53;;;14.00;92.80;;;;;;5009719;28;20058;-75
2021/01/31 10:07:33;;;;;;;8.80;6.63;;;14.10;92.90;;;;;;4995087;28;20049;-75
2021/01/31 10:10:19;;;;;;;8.32;6.75;;;14.30;93.00;;;;;;4994947;28;20095;-75
2021/01/31 10:12:44;;;;;;;11.75;7.97;;;14.10;93.10;;;;;;4995145;28;20042;-75
2021/01/31 10:15:11;;;;;;;8.82;6.85;;;14.00;93.00;;;;;;4994928;28;20383;-75
2021/01/31 10:17:44;;;;;;;9.20;6.57;;;14.30;92.90;;;;;;4995186;28;20034;-75
2021/01/31 10:20:39;;;;;;;7.40;5.50;;;13.90;93.10;;;;;;4995092;28;20045;-75
2021/01/31 10:23:20;;;;;;;8.52;6.55;;;14.20;92.80;;;;;;4994868;28;20065;-74
2021/01/31 10:26:01;;;;;;;7.22;5.78;;;14.20;93.00;;;;;;4994904;28;20489;-74
2021/01/31 10:28:47;;;;;;;8.30;5.82;;;14.10;92.90;;;;;;4994962;28;20085;-74
2021/01/31 10:31:32;;;;;;;8.88;5.88;;;14.10;93.10;;;;;;4994946;28;20508;-74
2021/01/31 10:34:00;;;;;;;7.82;6.32;;;14.00;92.40;;;;;;4994529;28;20073;-75
2021/01/31 10:36:42;;;;;;;7.97;6.20;;;13.80;92.90;;;;;;4995911;28;20042;-73
2021/01/31 10:39:14;;;;;;;9.98;6.38;;;14.10;92.40;;;;;;5012182;28;20045;-75
2021/01/31 10:41:45;;;;;;;7.75;6.07;;;14.00;93.10;;;;;;5013650;28;20077;-74
2021/01/31 10:44:20;;;;;;;6.18;5.15;;;14.10;93.00;;;;;;5012824;28;20121;-74
2021/01/31 10:46:46;;;;;;;6.18;4.70;;;14.20;92.80;;;;;;5013868;28;20120;-73
2021/01/31 10:49:11;;;;;;;7.00;4.78;;;14.60;93.10;;;;;;5013773;28;20316;-77
2021/01/31 10:51:38;;;;;;;5.25;4.40;;;14.70;93.20;;;;;;5014316;28;20512;-75
2021/01/31 10:54:05;;;;;;;5.03;3.60;;;14.50;93.10;;;;;;5013886;28;20050;-74
2021/01/31 10:56:31;;;;;;;6.50;4.35;;;14.50;92.90;;;;;;5014238;28;20053;-75
2021/01/31 10:58:57;;;;;;;5.45;4.30;;;14.40;92.90;;;;;;5012538;28;20033;-76
2021/01/31 11:01:23;;;;;;;7.00;3.85;;;14.70;93.00;;;;;;5013465;28;20527;-75
2021/01/31 11:03:50;;;;;;;4.55;2.90;;;14.70;93.00;;;;;;5013583;28;20096;-76
2021/01/31 11:06:17;;;;;;;3.45;2.33;;;14.70;92.80;;;;;;5013635;28;20092;-75
2021/01/31 11:08:43;;;;;;;5.22;2.35;;;14.90;92.70;;;;;;5013676;28;20038;-76
2021/01/31 11:11:09;;;;;;;4.82;2.10;;;15.20;92.70;;;;;;5013327;28;20532;-75
2021/01/31 11:13:35;;;;;;;4.82;1.70;;;15.10;92.60;;;;;;5013266;28;20046;-75
2021/01/31 11:16:03;;;;;;;5.35;1.95;;;14.90;92.20;;;;;;5013127;28;20508;-76
2021/01/31 11:18:29;;;;;;;4.97;1.65;;;14.90;92.20;;;;;;5012874;28;20128;-75
2021/01/31 11:20:55;;;;;;;6.93;2.30;;;14.90;92.20;;;;;;5013285;28;20061;-77
2021/01/31 11:23:22;;;;;;;7.75;2.15;;;14.90;92.40;;;;;;5011426;28;20513;-76
2021/01/31 11:25:48;;;;;;;6.15;1.52;;;15.00;92.30;;;;;;5004326;28;20042;-75
2021/01/31 11:28:14;;;;;;;7.63;1.77;;;15.10;92.20;;;;;;5010205;28;20058;-76
2021/01/31 11:30:41;;;;;;;11.35;2.42;;;15.20;92.20;;;;;;5012157;28;20594;-76
2021/01/31 11:33:06;;;;;;;6.95;2.20;;;15.10;92.10;;;;;;5012426;28;20045;-75
2021/01/31 11:35:33;;;;;;;7.90;2.47;;;15.70;92.00;;;;;;5013193;28;20038;-76
2021/01/31 11:37:59;;;;;;;10.88;2.42;;;15.80;91.70;;;;;;5012891;28;20046;-77
2021/01/31 11:40:26;;;;;;;8.18;1.48;;;15.80;91.90;;;;;;5009916;28;20510;-75
2021/01/31 11:42:52;;;;;;;8.00;1.67;;;15.90;91.40;;;;;;4993088;28;20049;-76
2021/01/31 11:45:20;;;;;;;5.57;1.23;;;16.20;90.90;;;;;;4991664;28;20121;-73
2021/01/31 11:47:46;;;;;;;6.32;1.50;;;16.30;90.70;;;;;;5009305;28;20042;-73
2021/01/31 11:50:17;;;;;;;4.40;1.02;;;16.10;90.70;;;;;;5003695;28;20112;-74
2021/01/31 11:52:43;;;;;;;3.95;1.05;;;16.00;90.50;;;;;;5013045;28;20089;-74
2021/01/31 11:55:10;;;;;;;3.00;0.70;;;15.80;90.40;;;;;;5013316;28;20156;-73
2021/01/31 11:57:36;;;;;;;4.88;0.90;;;15.70;90.30;;;;;;5013168;28;20049;-74
2021/01/31 12:00:13;;;;;;;3.25;0.70;;;15.90;90.30;;;;;;5013083;28;20073;-74
2021/01/31 12:02:39;;;;;;;4.72;0.95;;;15.90;90.20;;;;;;5013106;28;20142;-74
2021/01/31 12:05:09;;;;;;;3.67;0.77;;;15.30;90.10;;;;;;5013784;28;20081;-74
2021/01/31 12:07:35;;;;;;;6.13;1.00;;;15.60;90.10;;;;;;5013956;28;20072;-75
2021/01/31 12:10:01;;;;;;;7.75;1.08;;;15.50;90.20;;;;;;5012822;28;20046;-74
2021/01/31 12:12:26;;;;;;;5.53;1.10;;;16.00;90.30;;;;;;5015535;28;20052;-74
2021/01/31 12:14:52;;;;;;;7.50;0.98;;;16.20;90.30;;;;;;5017397;28;20050;-74
2021/01/31 12:17:18;;;;;;;6.35;1.00;;;16.10;90.30;;;;;;5017421;28;20485;-73
2021/01/31 12:19:44;;;;;;;6.25;0.70;;;16.20;90.00;;;;;;5017049;28;20081;-72
2021/01/31 12:22:09;;;;;;;6.35;1.10;;;16.20;89.50;;;;;;5014647;28;20100;-73
2021/01/31 12:24:35;;;;;;;4.50;0.70;;;16.40;89.60;;;;;;4999674;28;20125;-75
2021/01/31 12:27:01;;;;;;;3.17;0.45;;;16.50;89.60;;;;;;5004634;28;20484;-75
2021/01/31 12:29:27;;;;;;;3.50;0.40;;;16.60;89.50;;;;;;5017472;28;20121;-75
2021/01/31 12:31:53;;;;;;;6.38;0.60;;;16.70;88.90;;;;;;5015631;28;20042;-73
2021/01/31 12:34:19;;;;;;;2.33;0.40;;;16.90;88.60;;;;;;5017062;28;20045;-74
2021/01/31 12:36:45;;;;;;;2.70;0.45;;;16.50;88.70;;;;;;5004390;28;20048;-76
2021/01/31 12:39:11;;;;;;;4.97;0.93;;;16.70;88.30;;;;;;5015044;28;20042;-74
2021/01/31 12:41:37;;;;;;;6.80;0.63;;;16.40;88.50;;;;;;5016352;28;20033;-74
2021/01/31 12:44:03;;;;;;;3.45;0.50;;;16.40;88.30;;;;;;5016826;28;20551;-74
2021/01/31 12:46:29;;;;;;;3.97;0.55;;;16.20;87.80;;;;;;5016818;28;20129;-75
2021/01/31 12:48:55;;;;;;;4.50;0.70;;;16.30;88.20;;;;;;5016631;28;20129;-74
2021/01/31 12:51:21;;;;;;;4.68;0.70;;;16.10;88.50;;;;;;5016246;28;20033;-74
2021/01/31 12:53:47;;;;;;;4.38;0.57;;;16.00;88.20;;;;;;5015799;28;20046;-73
2021/01/31 12:56:12;;;;;;;4.68;0.88;;;15.80;88.40;;;;;;5016555;28;20048;-73
2021/01/31 12:58:39;;;;;;;5.30;1.08;;;16.00;88.20;;;;;;5016262;28;20050;-74
2021/01/31 13:01:06;;;;;;;5.93;1.10;;;16.00;88.90;;;;;;5015995;28;20089;-74
2021/01/31 13:03:31;;;;;;;3.35;0.60;;;16.00;88.30;;;;;;5016480;28;20056;-74
2021/01/31 13:05:57;;;;;;;5.82;0.60;;;16.10;88.00;;;;;;5015781;28;20145;-74
2021/01/31 13:08:23;;;;;;;3.45;0.47;;;16.30;87.90;;;;;;5016213;28;20453;-74
2021/01/31 13:10:49;;;;;;;3.65;0.32;;;16.30;87.20;;;;;;5015916;28;20053;-74
2021/01/31 13:13:16;;;;;;;3.38;0.32;;;16.70;87.30;;;;;;5015741;28;20475;-74